»·PEaware :: CGVZB YSSY-YBBN

CGVZB :: YSSY-YBBN

FLIGHT INFORMATION

Flight Status: Arrived
Operator: Unknown
More flights by this operator :: More flights under this callsign
Pilot: Alan S. (10569)
Aircraft: BOEING 767-300
(B763)
More flights by this aircraft type
Origin: YSSY Kingsford Smith Intl
Australia
Destination: YBBN Brisbane Intl
Australia
More flights between these airports :: More routes between these airports
Route: DEENA7 RIC W214 MAKOR W347 MATLA H133 GAMBL H66 BLAKA BLAKA9A
File this flight plan on PilotEdge
Remarks:
Altitude:
(Current/Filed)
35,000ft
Speed:
(Current/Filed)
485kts
Departed: 14-Jun-17 06:05 PM
Arrived: 14-Jun-17 07:18 PM
Distance/Time
Traveled:
405nm/1:12
Distance/Time
To Go:
Arrived

Flight Plot

Page will automatically refresh every two minutes.

Flight plan parsing failed; only flown route is shown


Map Options




Map Legend


Flown Route
Filed Route
Departure Airport
Arrival Airport
Navaid (VOR, NDB)
Fix

Horizontal Profiles

Position Reports

Time Latitude Longitude Heading Altitude Ground
Speed
14-Jun-17 17:42 -33.935944 151.181081 78 21ft 0kts
14-Jun-17 17:43 -33.935944 151.181081 78 21ft 0kts
14-Jun-17 17:44 -33.935944 151.181080 78 21ft 0kts
14-Jun-17 17:45 -33.935944 151.181080 78 21ft 0kts
14-Jun-17 17:46 -33.935944 151.181080 78 21ft 0kts
14-Jun-17 17:47 -33.935944 151.181080 78 21ft 0kts
14-Jun-17 17:48 -33.935944 151.181080 78 21ft 0kts
14-Jun-17 17:49 -33.935944 151.181080 78 21ft 0kts
14-Jun-17 17:50 -33.935944 151.181080 78 21ft 0kts
14-Jun-17 17:51 -33.935944 151.181080 78 21ft 0kts
14-Jun-17 17:52 -33.935944 151.181080 78 21ft 0kts
14-Jun-17 17:53 -33.935944 151.181080 78 21ft 0kts
14-Jun-17 17:54 -33.935944 151.181080 78 21ft 0kts
14-Jun-17 17:55 -33.935944 151.181080 78 21ft 0kts
14-Jun-17 17:56 -33.935944 151.181080 78 21ft 0kts
14-Jun-17 17:57 -33.935944 151.181080 78 21ft 0kts
14-Jun-17 17:58 -33.936026 151.180606 78 21ft 2kts
14-Jun-17 17:59 -33.936019 151.180354 136 21ft 0kts
14-Jun-17 18:00 -33.936019 151.180354 136 21ft 0kts
14-Jun-17 18:01 -33.936020 151.180354 136 21ft 0kts
14-Jun-17 18:02 -33.936479 151.180538 176 21ft 4kts
14-Jun-17 18:03 -33.937003 151.179023 282 21ft 8kts
14-Jun-17 18:04 -33.936516 151.176150 283 21ft 0kts
14-Jun-17 18:05 -33.932805 151.174793 348 21ft 25kts
14-Jun-17 18:06 -33.929044 151.172579 237 21ft 12kts
14-Jun-17 18:07 -33.940884 151.174581 168 21ft 149kts
14-Jun-17 18:08 -33.992762 151.178924 185 2936ft 209kts
14-Jun-17 18:09 -34.058430 151.185512 165 5625ft 276kts
14-Jun-17 18:10 -34.121091 151.202346 188 8840ft 291kts
14-Jun-17 18:11 -34.157019 151.130560 292 12432ft 294kts
14-Jun-17 18:12 -34.091870 151.065162 326 15111ft 334kts
14-Jun-17 18:13 -34.012917 150.999072 323 17969ft 362kts
14-Jun-17 18:14 -33.922179 150.943413 333 21082ft 379kts
14-Jun-17 18:15 -33.825241 150.893400 332 23758ft 396kts
14-Jun-17 18:16 -33.722162 150.840480 331 26188ft 414kts
14-Jun-17 18:17 -33.609761 150.801297 354 28574ft 442kts
14-Jun-17 18:18 -33.492384 150.850478 30 30972ft 470kts
14-Jun-17 18:19 -33.382999 150.935522 27 33033ft 471kts
14-Jun-17 18:20 -33.272600 151.018883 28 34976ft 468kts
14-Jun-17 18:21 -33.161271 151.102470 28 35037ft 487kts
14-Jun-17 18:22 -33.055258 151.202454 40 35108ft 486kts
14-Jun-17 18:23 -32.956157 151.311266 42 35339ft 489kts
14-Jun-17 18:24 -32.861631 151.415048 42 35342ft 488kts
14-Jun-17 18:25 -32.762468 151.517832 30 35338ft 487kts
14-Jun-17 18:26 -32.638135 151.575296 15 35350ft 482kts
14-Jun-17 18:27 -32.511210 151.623308 15 35348ft 482kts
14-Jun-17 18:28 -32.391271 151.668181 14 35341ft 482kts
14-Jun-17 18:29 -32.264260 151.715527 14 35344ft 482kts
14-Jun-17 18:30 -32.137810 151.762531 14 35345ft 482kts
14-Jun-17 18:31 -32.011910 151.808989 14 35346ft 482kts
14-Jun-17 18:32 -31.897525 151.851065 14 35347ft 482kts
14-Jun-17 18:33 -31.779030 151.894535 14 35342ft 482kts
14-Jun-17 18:34 -31.654444 151.940118 14 35342ft 482kts
14-Jun-17 18:35 -31.537057 151.982946 14 35343ft 482kts
14-Jun-17 18:36 -31.418473 152.026099 14 35345ft 482kts
14-Jun-17 18:37 -31.294447 152.071107 14 35351ft 482kts
14-Jun-17 18:38 -31.171087 152.115752 14 35368ft 482kts
14-Jun-17 18:39 -31.047836 152.160237 14 35375ft 482kts
14-Jun-17 18:40 -30.923281 152.205034 15 35377ft 485kts
14-Jun-17 18:41 -30.809165 152.246025 15 35367ft 485kts
14-Jun-17 18:42 -30.682372 152.291435 15 35355ft 485kts
14-Jun-17 18:43 -30.555304 152.336803 15 35346ft 485kts
14-Jun-17 18:44 -30.428843 152.386671 19 35349ft 486kts
14-Jun-17 18:45 -30.302902 152.441259 19 35347ft 486kts
14-Jun-17 18:46 -30.177880 152.495206 19 35349ft 486kts
14-Jun-17 18:47 -30.052815 152.549019 19 35350ft 486kts
14-Jun-17 18:48 -29.928411 152.602403 19 35352ft 486kts
14-Jun-17 18:49 -29.818580 152.649408 19 35345ft 486kts
14-Jun-17 18:51 -29.702430 152.699008 18 35342ft 486kts
14-Jun-17 18:52 -29.575423 152.753085 18 35371ft 509kts
14-Jun-17 18:53 -29.445497 152.808282 18 35339ft 505kts
14-Jun-17 18:54 -29.314071 152.863764 18 35090ft 506kts
14-Jun-17 18:55 -29.185108 152.917985 18 34022ft 490kts
14-Jun-17 18:56 -29.056405 152.971906 20 32114ft 496kts
14-Jun-17 18:57 -28.926512 153.026226 21 29286ft 505kts
14-Jun-17 18:58 -28.812829 153.063656 14 27601ft 482kts
14-Jun-17 18:59 -28.686978 153.096466 14 24807ft 460kts
14-Jun-17 19:00 -28.564368 153.128114 15 22916ft 449kts
14-Jun-17 19:01 -28.444654 153.158925 15 20980ft 439kts
14-Jun-17 19:02 -28.327758 153.188938 15 19150ft 425kts
14-Jun-17 19:03 -28.215108 153.217788 15 17649ft 406kts
14-Jun-17 19:04 -28.107096 153.245465 15 15550ft 393kts
14-Jun-17 19:05 -28.002636 153.272172 14 14115ft 377kts
14-Jun-17 19:06 -27.911838 153.295338 15 11890ft 312kts
14-Jun-17 19:07 -27.833886 153.315562 15 10698ft 313kts
14-Jun-17 19:08 -27.750105 153.334173 2 9661ft 307kts
14-Jun-17 19:09 -27.668391 153.335257 2 8539ft 287kts
14-Jun-17 19:10 -27.589078 153.336110 2 7595ft 284kts
14-Jun-17 19:11 -27.512103 153.336899 2 6663ft 265kts
14-Jun-17 19:12 -27.438872 153.337670 2 5861ft 262kts
14-Jun-17 19:13 -27.366187 153.338424 2 5060ft 260kts
14-Jun-17 19:14 -27.294529 153.339461 2 4333ft 255kts
14-Jun-17 19:15 -27.234594 153.311923 322 3411ft 227kts
14-Jun-17 19:16 -27.210151 153.255774 265 2937ft 200kts
14-Jun-17 19:17 -27.240045 153.211293 203 2790ft 207kts
14-Jun-17 19:18 -27.290036 153.182920 204 1998ft 187kts
14-Jun-17 19:19 -27.333207 153.158058 205 990ft 160kts
14-Jun-17 19:20 -27.370174 153.136869 204 162ft 148kts
14-Jun-17 19:21 -27.392562 153.124107 207 14ft 32kts
14-Jun-17 19:22 -27.399292 153.120268 207 27ft 24kts
14-Jun-17 19:23 -27.401986 153.116510 26 20ft 16kts

Navigation Log

Ident Type
Flight plan parsing failed, navigation log unavailable